Time;durP1;ratioP1;P1;durP2;ratioP2;P2;SDS_P1;SDS_P2;PMS_P1;PMS_P2;Temp;Humidity;BMP_temperature;BMP_pressure;BME280_temperature;BME280_humidity;BME280_pressure;Samples;Min_cycle;Max_cycle;Signal;HPM_P1;HPM_P2
2022/05/20 00:00:18;;;;;;;8.75;6.97;;;19.60;99.90;;;;;;5090366;28;20255;-69
2022/05/20 00:02:46;;;;;;;8.63;6.72;;;19.60;99.90;;;;;;5089947;28;20206;-69
2022/05/20 00:05:13;;;;;;;6.25;5.70;;;19.60;99.90;;;;;;5090259;28;20272;-71
2022/05/20 00:07:40;;;;;;;14.95;9.10;;;19.60;99.90;;;;;;5089655;28;20230;-72
2022/05/20 00:10:09;;;;;;;14.98;7.43;;;19.60;99.90;;;;;;5090191;28;20209;-72
2022/05/20 00:12:36;;;;;;;11.38;6.35;;;19.60;99.90;;;;;;5090150;28;20209;-69
2022/05/20 00:15:07;;;;;;;11.40;6.47;;;19.60;99.90;;;;;;5090451;28;20206;-72
2022/05/20 00:17:34;;;;;;;11.27;6.55;;;19.60;99.90;;;;;;5089648;28;20205;-74
2022/05/20 00:20:01;;;;;;;9.32;6.57;;;19.60;99.90;;;;;;5090177;28;20246;-73
2022/05/20 00:22:28;;;;;;;13.38;7.07;;;19.60;99.90;;;;;;5091508;28;20202;-73
2022/05/20 00:27:39;;;;;;;8.23;6.15;;;19.60;99.90;;;;;;5093492;28;20205;-74
2022/05/20 00:30:09;;;;;;;7.75;6.65;;;19.60;99.90;;;;;;5093729;28;20259;-72
2022/05/20 00:32:37;;;;;;;8.32;6.30;;;19.60;99.90;;;;;;5092967;28;20556;-70
2022/05/20 00:35:05;;;;;;;8.05;5.93;;;19.50;99.90;;;;;;5093570;28;20292;-70
2022/05/20 00:37:32;;;;;;;7.97;6.47;;;19.50;99.90;;;;;;5093109;28;20205;-74
2022/05/20 00:39:59;;;;;;;6.78;6.18;;;19.50;99.90;;;;;;5093441;28;20254;-70
2022/05/20 00:42:26;;;;;;;10.30;6.07;;;19.50;99.90;;;;;;5092887;28;20672;-71
2022/05/20 00:44:53;;;;;;;8.70;6.35;;;19.50;99.90;;;;;;5093739;28;20229;-70
2022/05/20 00:47:22;;;;;;;8.43;7.53;;;19.50;99.90;;;;;;5093506;28;20202;-70
2022/05/20 00:49:54;;;;;;;16.65;7.10;;;19.50;99.90;;;;;;5093073;28;20258;-71
2022/05/20 00:52:24;;;;;;;8.93;6.40;;;19.50;99.90;;;;;;5093413;28;20730;-70
2022/05/20 00:54:54;;;;;;;14.20;7.07;;;19.50;99.90;;;;;;5093502;28;20275;-70
2022/05/20 00:57:25;;;;;;;7.60;6.03;;;19.40;99.90;;;;;;5093586;28;20201;-71
2022/05/20 00:59:56;;;;;;;9.70;5.85;;;19.50;99.90;;;;;;5093517;28;20270;-70
2022/05/20 01:02:26;;;;;;;7.45;5.80;;;19.50;99.90;;;;;;5093132;28;20266;-69
2022/05/20 01:04:56;;;;;;;9.95;7.32;;;19.50;99.90;;;;;;5093150;28;20201;-71
2022/05/20 01:07:25;;;;;;;6.82;6.13;;;19.40;99.90;;;;;;5093388;28;20617;-70
2022/05/20 01:09:51;;;;;;;6.05;5.53;;;19.40;99.90;;;;;;5093345;28;20201;-71
2022/05/20 01:12:19;;;;;;;7.15;5.13;;;19.50;99.90;;;;;;5093205;28;20251;-72
2022/05/20 01:14:46;;;;;;;9.10;5.90;;;19.40;99.90;;;;;;5092229;28;20205;-70
2022/05/20 01:17:13;;;;;;;11.93;5.97;;;19.40;99.90;;;;;;5092911;28;20205;-70
2022/05/20 01:19:46;;;;;;;10.55;6.53;;;19.40;99.90;;;;;;5092460;28;20564;-72
2022/05/20 01:22:24;;;;;;;6.45;5.47;;;19.40;99.90;;;;;;5092676;28;20209;-71
2022/05/20 01:24:53;;;;;;;6.63;5.78;;;19.40;99.90;;;;;;5092824;28;20251;-70
2022/05/20 01:27:20;;;;;;;7.65;5.55;;;19.40;99.90;;;;;;5092803;28;20205;-72
2022/05/20 01:29:47;;;;;;;7.80;4.90;;;19.30;99.90;;;;;;5092170;28;20205;-71
2022/05/20 01:32:14;;;;;;;6.97;5.15;;;19.40;99.90;;;;;;5092348;28;20366;-73
2022/05/20 01:34:41;;;;;;;7.45;5.75;;;19.40;99.90;;;;;;5091856;28;20685;-72
2022/05/20 01:37:08;;;;;;;11.20;5.28;;;19.30;99.90;;;;;;5092304;28;20231;-72
2022/05/20 01:39:35;;;;;;;5.95;4.90;;;19.40;99.90;;;;;;5091890;28;20224;-70
2022/05/20 01:42:09;;;;;;;10.88;5.22;;;19.40;99.90;;;;;;5092210;28;20680;-71
2022/05/20 01:44:41;;;;;;;8.07;5.47;;;19.40;99.90;;;;;;5091502;28;20236;-70
2022/05/20 01:47:16;;;;;;;7.57;4.25;;;19.40;99.90;;;;;;5091999;28;20240;-70
2022/05/20 01:49:51;;;;;;;8.85;5.68;;;19.30;99.90;;;;;;5091667;28;20222;-72
2022/05/20 01:52:24;;;;;;;5.75;4.32;;;19.30;99.90;;;;;;5092431;28;20255;-73
2022/05/20 01:54:59;;;;;;;7.78;4.25;;;19.30;99.90;;;;;;5092362;28;20202;-70
2022/05/20 01:57:33;;;;;;;6.35;5.47;;;19.30;99.90;;;;;;5091455;28;20231;-71
2022/05/20 02:00:06;;;;;;;4.95;4.18;;;19.30;99.90;;;;;;5091801;28;20205;-70
2022/05/20 02:02:40;;;;;;;6.90;4.43;;;19.30;99.90;;;;;;5091562;28;20274;-71
2022/05/20 02:05:12;;;;;;;7.13;4.63;;;19.30;99.90;;;;;;5091794;28;20559;-71
2022/05/20 02:07:43;;;;;;;9.93;5.97;;;19.40;99.90;;;;;;5091334;28;20618;-70
2022/05/20 02:10:17;;;;;;;7.47;5.22;;;19.30;99.90;;;;;;5091832;28;20209;-71
2022/05/20 02:12:50;;;;;;;5.20;4.53;;;19.30;99.90;;;;;;5091202;28;20630;-71
2022/05/20 02:15:22;;;;;;;8.18;4.82;;;19.30;99.90;;;;;;5091652;28;20197;-70
2022/05/20 02:17:54;;;;;;;6.97;4.13;;;19.30;99.90;;;;;;5091565;28;20205;-73
2022/05/20 02:20:26;;;;;;;4.35;3.72;;;19.30;99.90;;;;;;5091900;28;20201;-72
2022/05/20 02:22:57;;;;;;;7.78;4.13;;;19.40;99.90;;;;;;5091606;28;20202;-71
2022/05/20 02:25:29;;;;;;;8.60;5.03;;;19.40;99.90;;;;;;5091437;28;20229;-71
2022/05/20 02:28:02;;;;;;;7.03;4.35;;;19.30;99.90;;;;;;5091310;28;20266;-73
2022/05/20 02:30:33;;;;;;;20.38;6.90;;;19.30;99.90;;;;;;5091014;28;20266;-74
2022/05/20 02:33:06;;;;;;;9.80;5.18;;;19.30;99.90;;;;;;5074026;28;20699;-74
2022/05/20 02:35:34;;;;;;;6.65;4.32;;;19.30;99.90;;;;;;5070694;28;20553;-73
2022/05/20 02:38:09;;;;;;;8.45;5.47;;;19.30;99.90;;;;;;5070946;28;20673;-71
2022/05/20 02:40:36;;;;;;;7.47;4.15;;;19.30;99.90;;;;;;5070827;28;20564;-72
2022/05/20 02:43:05;;;;;;;5.35;4.30;;;19.40;99.90;;;;;;5070974;28;20590;-71
2022/05/20 02:45:32;;;;;;;5.88;4.28;;;19.30;99.90;;;;;;5069908;28;20601;-70
2022/05/20 02:47:59;;;;;;;5.72;4.72;;;19.30;99.90;;;;;;5071039;28;20553;-70
2022/05/20 02:50:26;;;;;;;9.18;5.20;;;19.30;99.90;;;;;;5070076;28;20735;-70
2022/05/20 02:52:53;;;;;;;8.00;4.38;;;19.30;99.90;;;;;;5071183;28;20263;-71
2022/05/20 02:55:20;;;;;;;8.52;4.90;;;19.30;99.90;;;;;;5071265;28;20198;-71
2022/05/20 02:57:47;;;;;;;7.85;3.83;;;19.30;99.90;;;;;;5070392;28;20252;-71
2022/05/20 03:05:43;;;;;;;7.00;4.47;;;19.30;99.90;;;;;;5047489;28;20233;-71
2022/05/20 03:08:11;;;;;;;6.15;5.00;;;19.30;99.90;;;;;;5070730;28;20198;-70
2022/05/20 03:10:38;;;;;;;5.18;4.38;;;19.30;99.90;;;;;;5070115;28;20202;-70
2022/05/20 03:13:08;;;;;;;6.72;3.90;;;19.30;99.90;;;;;;5070731;28;20263;-71
2022/05/20 03:15:38;;;;;;;8.65;4.38;;;19.30;99.90;;;;;;5075259;28;20206;-70
2022/05/20 03:18:06;;;;;;;9.02;4.20;;;19.20;99.90;;;;;;5079420;28;20619;-71
2022/05/20 03:20:33;;;;;;;5.53;5.03;;;19.20;99.90;;;;;;5088720;28;20671;-70
2022/05/20 03:23:00;;;;;;;6.80;4.15;;;19.20;99.90;;;;;;5086744;28;20749;-69
2022/05/20 03:25:27;;;;;;;7.50;4.35;;;19.20;99.90;;;;;;5089851;28;20254;-69
2022/05/20 03:27:54;;;;;;;6.15;4.25;;;19.30;99.90;;;;;;5090253;28;20624;-70
2022/05/20 03:30:21;;;;;;;8.57;4.68;;;19.30;99.90;;;;;;5091000;28;20202;-69
2022/05/20 03:32:50;;;;;;;5.63;4.22;;;19.30;99.90;;;;;;5090076;28;20664;-71
2022/05/20 03:35:17;;;;;;;9.00;4.05;;;19.30;99.90;;;;;;5090680;28;20210;-71
2022/05/20 03:37:44;;;;;;;6.78;4.88;;;19.30;99.90;;;;;;5090051;28;20633;-70
2022/05/20 03:40:12;;;;;;;8.30;4.50;;;19.30;99.90;;;;;;5090063;28;20201;-70
2022/05/20 03:42:39;;;;;;;8.18;4.03;;;19.30;99.90;;;;;;5089632;28;20300;-71
2022/05/20 03:45:08;;;;;;;7.10;4.30;;;19.30;99.90;;;;;;5090271;28;20216;-71
2022/05/20 03:47:35;;;;;;;7.93;3.75;;;19.30;99.90;;;;;;5089939;28;20252;-70
2022/05/20 03:50:04;;;;;;;5.78;4.22;;;19.20;99.90;;;;;;5089968;28;20643;-71
2022/05/20 03:52:32;;;;;;;7.97;3.88;;;19.30;99.90;;;;;;5089812;28;20210;-70
2022/05/20 03:55:00;;;;;;;9.25;4.45;;;19.30;99.90;;;;;;5089738;28;20729;-71
2022/05/20 03:57:27;;;;;;;6.75;4.95;;;19.30;99.90;;;;;;5093307;28;20237;-73
2022/05/20 03:59:54;;;;;;;6.93;4.13;;;19.30;99.90;;;;;;5094115;28;20201;-71
2022/05/20 04:02:21;;;;;;;5.25;4.00;;;19.30;99.90;;;;;;5094497;28;20205;-70
2022/05/20 04:04:52;;;;;;;5.38;4.25;;;19.30;99.90;;;;;;5093670;28;20212;-70
2022/05/20 04:07:22;;;;;;;6.53;5.22;;;19.30;99.90;;;;;;5094330;28;20233;-71
2022/05/20 04:09:49;;;;;;;6.05;4.47;;;19.30;99.90;;;;;;5092120;28;20255;-70
2022/05/20 04:12:24;;;;;;;5.43;3.40;;;19.30;99.90;;;;;;5092702;28;20611;-70
2022/05/20 04:14:51;;;;;;;8.25;4.78;;;19.30;99.90;;;;;;5087274;28;20227;-70
2022/05/20 04:17:18;;;;;;;6.07;4.38;;;19.40;99.90;;;;;;5093580;28;20198;-69
2022/05/20 04:19:45;;;;;;;6.03;4.65;;;19.30;99.90;;;;;;5092558;28;20644;-69
2022/05/20 04:22:15;;;;;;;5.25;4.32;;;19.30;99.90;;;;;;5093426;28;20204;-71
2022/05/20 04:24:43;;;;;;;7.35;4.82;;;19.30;99.90;;;;;;5093505;28;20275;-70
2022/05/20 04:27:10;;;;;;;5.57;4.53;;;19.30;99.90;;;;;;5093727;28;20716;-70
2022/05/20 04:29:37;;;;;;;5.10;3.85;;;19.30;99.90;;;;;;5092761;28;20757;-73
2022/05/20 04:32:05;;;;;;;7.60;4.60;;;19.40;99.90;;;;;;5092761;28;20202;-69
2022/05/20 04:34:32;;;;;;;7.75;4.45;;;19.40;99.90;;;;;;5093249;28;20617;-71
2022/05/20 04:36:59;;;;;;;7.97;4.65;;;19.30;99.90;;;;;;5093619;28;20201;-71
2022/05/20 04:39:26;;;;;;;5.07;4.47;;;19.30;99.90;;;;;;5093113;28;20261;-71
2022/05/20 04:47:26;;;;;;;7.30;4.40;;;19.40;99.90;;;;;;5093665;28;20233;-70
2022/05/20 04:49:53;;;;;;;4.38;3.90;;;19.40;99.90;;;;;;5093776;28;20210;-70
2022/05/20 04:52:21;;;;;;;7.07;3.97;;;19.40;99.90;;;;;;5093512;28;20205;-77
2022/05/20 04:54:50;;;;;;;5.90;4.18;;;19.40;99.90;;;;;;5093003;28;20259;-71
2022/05/20 04:57:30;;;;;;;8.65;4.80;;;19.50;99.90;;;;;;5092420;28;20259;-73
2022/05/20 04:59:59;;;;;;;6.43;4.50;;;19.60;99.90;;;;;;5093098;28;20626;-75
2022/05/20 05:02:27;;;;;;;8.18;4.20;;;19.50;99.90;;;;;;5092337;28;20205;-74
2022/05/20 05:04:54;;;;;;;7.70;4.68;;;19.60;99.90;;;;;;5092900;28;20288;-72
2022/05/20 05:07:22;;;;;;;4.93;4.53;;;19.50;99.90;;;;;;5091623;28;20793;-71
2022/05/20 05:09:49;;;;;;;9.00;5.63;;;19.60;99.90;;;;;;5072892;28;20339;-70
2022/05/20 05:12:17;;;;;;;10.90;4.10;;;19.50;99.90;;;;;;5072819;28;20264;-70
2022/05/20 05:14:47;;;;;;;4.68;3.95;;;19.60;99.90;;;;;;5085340;28;20209;-70
2022/05/20 05:18:09;;;;;;;9.60;4.97;;;19.60;99.90;;;;;;5077636;28;20241;-71
2022/05/20 05:20:07;;;;;;;10.05;3.92;;;19.60;99.90;;;;;;5091513;28;20233;-75
2022/05/20 05:22:34;;;;;;;8.25;4.45;;;19.70;99.90;;;;;;5090501;28;20594;-71
2022/05/20 05:25:01;;;;;;;5.95;3.95;;;19.80;99.90;;;;;;5091709;28;20205;-69
2022/05/20 05:27:28;;;;;;;7.75;3.67;;;19.80;99.90;;;;;;5077046;28;20606;-74
2022/05/20 05:29:56;;;;;;;7.18;4.97;;;19.80;99.90;;;;;;5092612;28;20641;-72
2022/05/20 05:32:23;;;;;;;5.78;4.18;;;19.90;99.90;;;;;;5084586;28;20225;-74
2022/05/20 05:34:50;;;;;;;7.30;4.78;;;20.00;99.90;;;;;;5091826;28;20270;-75
2022/05/20 05:37:17;;;;;;;6.18;3.88;;;20.00;99.90;;;;;;5092029;28;20278;-83
2022/05/20 05:39:44;;;;;;;7.90;4.00;;;20.10;99.90;;;;;;5091721;28;20279;-72
2022/05/20 05:42:11;;;;;;;7.53;5.30;;;20.10;99.90;;;;;;5092098;28;20206;-82
2022/05/20 05:44:38;;;;;;;6.10;5.13;;;20.10;99.90;;;;;;5082603;28;20615;-80
2022/05/20 05:47:07;;;;;;;5.30;4.50;;;20.20;99.90;;;;;;5087054;28;20233;-71
2022/05/20 05:49:33;;;;;;;9.65;4.32;;;20.20;99.90;;;;;;5091970;28;20214;-74
2022/05/20 05:52:00;;;;;;;8.18;4.82;;;20.20;99.90;;;;;;5091640;28;20209;-80
2022/05/20 05:54:27;;;;;;;3.83;3.47;;;20.30;99.90;;;;;;5091768;28;20205;-78
2022/05/20 05:56:54;;;;;;;7.75;4.43;;;20.30;99.90;;;;;;5091741;28;20630;-76
2022/05/20 05:59:21;;;;;;;7.53;3.80;;;20.40;99.90;;;;;;5092215;28;20615;-81
2022/05/20 06:01:48;;;;;;;5.80;4.05;;;20.40;99.90;;;;;;5091748;28;20625;-78
2022/05/20 06:04:16;;;;;;;8.18;4.35;;;20.50;99.90;;;;;;5091472;28;20288;-76
2022/05/20 06:06:44;;;;;;;9.05;5.65;;;20.60;99.90;;;;;;5089702;28;20240;-72
2022/05/20 06:09:11;;;;;;;7.97;4.70;;;20.60;99.90;;;;;;5071783;28;20198;-80
2022/05/20 06:11:39;;;;;;;7.32;5.03;;;20.70;99.90;;;;;;5071211;28;20210;-70
2022/05/20 06:14:07;;;;;;;9.15;4.32;;;20.70;99.90;;;;;;5071655;28;20210;-73
2022/05/20 06:16:34;;;;;;;9.35;5.32;;;20.80;99.90;;;;;;5071234;28;20209;-74
2022/05/20 06:19:01;;;;;;;6.00;4.05;;;20.80;99.90;;;;;;5076277;28;20208;-74
2022/05/20 06:21:29;;;;;;;5.45;3.30;;;20.80;99.90;;;;;;5082311;28;20205;-72
2022/05/20 06:23:57;;;;;;;12.55;5.57;;;20.90;99.90;;;;;;5086545;28;20206;-72
2022/05/20 06:26:24;;;;;;;4.25;3.63;;;20.90;99.90;;;;;;5091196;28;20213;-70
2022/05/20 06:28:51;;;;;;;8.13;3.65;;;20.80;99.90;;;;;;5091367;28;20217;-70
2022/05/20 06:31:18;;;;;;;8.35;4.50;;;20.80;99.90;;;;;;5091292;28;20240;-81
2022/05/20 06:33:45;;;;;;;10.18;5.00;;;20.80;99.90;;;;;;5090458;28;20209;-79
2022/05/20 06:41:42;;;;;;;7.68;4.57;;;20.60;99.90;;;;;;5090549;28;20707;-72
2022/05/20 06:44:09;;;;;;;4.75;4.32;;;20.70;99.90;;;;;;5091018;28;20665;-72
2022/05/20 06:46:37;;;;;;;10.63;4.43;;;20.90;99.90;;;;;;5090250;28;20661;-75
2022/05/20 06:49:04;;;;;;;4.07;3.70;;;20.90;99.90;;;;;;5090513;28;20630;-74
2022/05/20 06:51:33;;;;;;;5.07;3.75;;;21.00;99.90;;;;;;5090479;28;20631;-72
2022/05/20 06:54:03;;;;;;;5.22;3.53;;;21.20;99.90;;;;;;5090902;28;20227;-73
2022/05/20 06:56:31;;;;;;;6.28;3.85;;;21.30;99.90;;;;;;5090393;28;20228;-75
2022/05/20 06:58:58;;;;;;;6.95;3.83;;;21.50;99.90;;;;;;5090974;28;20213;-74
2022/05/20 07:01:25;;;;;;;6.22;4.90;;;21.70;99.90;;;;;;5090371;28;20209;-75
2022/05/20 07:03:53;;;;;;;4.72;3.90;;;21.60;99.90;;;;;;5090660;28;20668;-71
2022/05/20 07:06:20;;;;;;;5.68;4.30;;;21.90;99.90;;;;;;5090996;28;20244;-71
2022/05/20 07:08:49;;;;;;;6.22;4.35;;;22.00;99.90;;;;;;5090117;28;20236;-72
2022/05/20 07:11:19;;;;;;;10.82;5.43;;;22.10;99.90;;;;;;5090867;28;20205;-71
2022/05/20 07:13:46;;;;;;;6.40;4.55;;;22.00;99.90;;;;;;5071835;28;20230;-72
2022/05/20 07:16:13;;;;;;;5.95;4.97;;;22.10;99.90;;;;;;5070820;28;20244;-74
2022/05/20 07:18:40;;;;;;;5.72;4.10;;;22.20;99.90;;;;;;5070065;28;20202;-74
2022/05/20 07:21:08;;;;;;;8.60;4.90;;;22.30;99.90;;;;;;5070734;28;20205;-72
2022/05/20 07:23:35;;;;;;;10.20;3.97;;;22.20;99.90;;;;;;5070123;28;20202;-74
2022/05/20 07:26:03;;;;;;;5.47;4.05;;;22.40;99.90;;;;;;5070798;28;20260;-74
2022/05/20 07:28:33;;;;;;;10.25;3.70;;;22.40;99.90;;;;;;5070158;28;20233;-71
2022/05/20 07:31:00;;;;;;;5.35;3.78;;;22.70;99.90;;;;;;5071639;28;20641;-71
2022/05/20 07:33:28;;;;;;;5.15;4.68;;;22.50;99.90;;;;;;5074099;28;20252;-70
2022/05/20 07:35:55;;;;;;;6.25;4.10;;;22.40;99.90;;;;;;5074400;28;20202;-71
2022/05/20 07:38:23;;;;;;;9.55;3.70;;;22.70;99.90;;;;;;5074763;28;20574;-70
2022/05/20 07:40:51;;;;;;;6.18;3.55;;;22.60;99.90;;;;;;5074803;28;20208;-75
2022/05/20 07:43:20;;;;;;;8.05;4.00;;;22.60;99.90;;;;;;5079710;28;20206;-71
2022/05/20 07:45:49;;;;;;;4.72;3.85;;;22.60;99.90;;;;;;5094323;28;20288;-72
2022/05/20 07:48:16;;;;;;;10.38;3.58;;;22.90;99.90;;;;;;5094343;28;20233;-77
2022/05/20 07:50:45;;;;;;;5.25;4.72;;;22.90;99.90;;;;;;5093775;28;20290;-72
2022/05/20 07:53:32;;;;;;;6.32;3.97;;;22.80;99.90;;;;;;5094823;28;20258;-73
2022/05/20 07:56:02;;;;;;;11.30;4.78;;;22.90;99.90;;;;;;5094458;28;20201;-72
2022/05/20 07:58:31;;;;;;;7.78;4.03;;;23.20;99.90;;;;;;5094215;28;20197;-76
2022/05/20 08:00:59;;;;;;;10.23;4.72;;;23.20;99.90;;;;;;5094117;28;20263;-73
2022/05/20 08:06:14;;;;;;;5.03;4.00;;;23.70;99.90;;;;;;5094204;28;20200;-71
2022/05/20 08:08:41;;;;;;;9.98;5.10;;;23.80;99.90;;;;;;5093855;28;20237;-71
2022/05/20 08:11:08;;;;;;;5.70;3.25;;;24.00;99.90;;;;;;5094187;28;20267;-74
2022/05/20 08:13:35;;;;;;;5.30;4.20;;;23.60;99.90;;;;;;5093599;28;20205;-71
2022/05/20 08:16:04;;;;;;;11.07;4.13;;;23.30;99.90;;;;;;5093665;28;20587;-74
2022/05/20 08:18:32;;;;;;;6.88;4.03;;;23.20;99.90;;;;;;5093689;28;20205;-72
2022/05/20 08:20:59;;;;;;;4.55;3.30;;;23.40;99.90;;;;;;5094082;28;20289;-74
2022/05/20 08:23:26;;;;;;;4.05;3.00;;;23.50;99.90;;;;;;5093528;28;20625;-71
2022/05/20 08:25:53;;;;;;;12.13;5.43;;;23.40;99.90;;;;;;5093670;28;20202;-72
2022/05/20 08:28:20;;;;;;;7.78;3.72;;;23.50;99.90;;;;;;5094137;28;20237;-70
2022/05/20 08:30:47;;;;;;;5.93;4.50;;;23.70;99.90;;;;;;5093356;28;20267;-75
2022/05/20 08:33:16;;;;;;;4.88;3.75;;;23.90;99.90;;;;;;5093825;28;20561;-70
2022/05/20 08:35:43;;;;;;;7.82;4.30;;;24.00;99.90;;;;;;5093310;28;20654;-71
2022/05/20 08:38:10;;;;;;;7.85;3.47;;;23.80;99.90;;;;;;5093672;28;20209;-70
2022/05/20 08:40:43;;;;;;;7.90;4.63;;;24.00;99.90;;;;;;5092865;28;20246;-75
2022/05/20 08:43:11;;;;;;;6.30;3.95;;;24.10;99.90;;;;;;5092313;28;20197;-70
2022/05/20 08:45:39;;;;;;;6.38;4.50;;;24.50;99.90;;;;;;5092885;28;20673;-71
2022/05/20 08:48:10;;;;;;;8.57;4.30;;;24.30;99.90;;;;;;5093478;28;20255;-72
2022/05/20 08:50:42;;;;;;;5.75;3.78;;;24.40;99.90;;;;;;5092803;28;20680;-70
2022/05/20 08:53:15;;;;;;;6.78;3.72;;;24.60;99.90;;;;;;5093310;28;20239;-72
2022/05/20 08:55:43;;;;;;;7.30;3.90;;;24.60;99.90;;;;;;5092807;28;20205;-76
2022/05/20 08:58:13;;;;;;;10.00;4.57;;;25.00;99.90;;;;;;5093229;28;20608;-70
2022/05/20 09:00:40;;;;;;;10.38;3.63;;;25.50;99.90;;;;;;5092770;28;20292;-70
2022/05/20 09:03:08;;;;;;;7.85;4.00;;;25.60;99.90;;;;;;5093040;28;20209;-72
2022/05/20 09:05:40;;;;;;;6.18;4.22;;;25.50;99.90;;;;;;5092599;28;20207;-71
2022/05/20 09:08:08;;;;;;;7.82;3.78;;;25.50;99.90;;;;;;5092790;28;20708;-71
2022/05/20 09:10:41;;;;;;;6.80;3.85;;;25.70;99.90;;;;;;5092568;28;20669;-71
2022/05/20 09:13:12;;;;;;;5.38;4.15;;;26.10;99.90;;;;;;5092790;28;20208;-78
2022/05/20 09:15:46;;;;;;;5.95;3.38;;;25.80;99.90;;;;;;5092326;28;20251;-69
2022/05/20 09:18:30;;;;;;;5.05;3.25;;;25.10;99.90;;;;;;5092913;28;20531;-68
2022/05/20 09:20:58;;;;;;;5.68;3.53;;;25.60;99.90;;;;;;5092637;28;20613;-67
2022/05/20 09:23:26;;;;;;;6.05;4.15;;;26.50;99.90;;;;;;5092349;28;20247;-69
2022/05/20 09:26:02;;;;;;;7.22;4.10;;;26.80;99.90;;;;;;5092783;28;20205;-72
2022/05/20 09:28:37;;;;;;;9.48;4.10;;;26.60;99.90;;;;;;5091722;28;20290;-71
2022/05/20 09:31:15;;;;;;;6.82;3.80;;;26.70;99.90;;;;;;5092685;28;20273;-72
2022/05/20 09:33:48;;;;;;;5.05;3.28;;;27.30;99.90;;;;;;5091996;28;20618;-76
2022/05/20 09:36:35;;;;;;;4.95;3.88;;;27.40;99.90;;;;;;5092499;28;20210;-73
2022/05/20 09:39:11;;;;;;;6.72;4.22;;;27.50;99.90;;;;;;5092424;28;20206;-70
2022/05/20 09:41:46;;;;;;;6.40;3.85;;;27.10;99.90;;;;;;5091776;28;20208;-71
2022/05/20 09:44:15;;;;;;;6.00;4.47;;;28.40;99.90;;;;;;5085965;28;20205;-71
2022/05/20 09:46:51;;;;;;;7.30;3.55;;;30.20;99.90;;;;;;5090402;28;20213;-73
2022/05/20 09:49:23;;;;;;;6.63;4.07;;;30.90;99.90;;;;;;5092091;28;20289;-70
2022/05/20 09:51:55;;;;;;;4.57;3.20;;;31.00;99.90;;;;;;5092200;28;20293;-72
2022/05/20 09:54:29;;;;;;;6.72;3.22;;;30.00;99.90;;;;;;5079296;28;20585;-72
2022/05/20 09:57:04;;;;;;;6.68;3.28;;;30.40;99.90;;;;;;5083000;28;20277;-73
2022/05/20 09:59:42;;;;;;;6.85;3.25;;;31.80;99.90;;;;;;5086549;28;20245;-71
2022/05/20 10:02:16;;;;;;;8.18;3.55;;;33.10;99.90;;;;;;5091810;28;20204;-79
2022/05/20 10:04:53;;;;;;;10.48;4.20;;;30.20;99.90;;;;;;5091459;28;20207;-77
2022/05/20 10:07:52;;;;;;;5.90;3.88;;;29.50;99.90;;;;;;5090495;28;20295;-70
2022/05/20 10:10:37;;;;;;;6.15;3.50;;;28.70;99.90;;;;;;5083621;28;20269;-71
2022/05/20 10:13:08;;;;;;;6.97;3.63;;;29.40;99.90;;;;;;5080343;28;20668;-76
2022/05/20 10:15:41;;;;;;;4.03;3.50;;;29.10;99.90;;;;;;5091668;28;20197;-86
2022/05/20 10:18:18;;;;;;;5.28;4.35;;;30.00;99.90;;;;;;5082717;28;20254;-71
2022/05/20 10:20:52;;;;;;;5.70;3.58;;;29.80;99.90;;;;;;5091294;28;20205;-78
2022/05/20 10:23:33;;;;;;;5.32;3.90;;;30.60;99.90;;;;;;5092011;28;20205;-75
2022/05/20 10:26:07;;;;;;;8.20;4.45;;;28.80;99.90;;;;;;5091185;28;20741;-73
2022/05/20 10:34:26;;;;;;;9.63;4.10;;;27.80;99.90;;;;;;5091168;28;20197;-71
2022/05/20 10:37:00;;;;;;;5.38;3.92;;;27.80;99.90;;;;;;5091072;28;20228;-76
2022/05/20 10:39:44;;;;;;;13.85;5.50;;;28.10;99.90;;;;;;5078159;28;20289;-85
2022/05/20 10:42:30;;;;;;;8.30;3.65;;;28.40;99.90;;;;;;5091567;28;20246;-85
2022/05/20 10:50:57;;;;;;;5.45;3.83;;;27.70;99.90;;;;;;5091049;28;20240;-85
2022/05/20 10:53:36;;;;;;;11.02;6.20;;;27.70;99.90;;;;;;5090705;28;20265;-79
2022/05/20 10:56:24;;;;;;;5.13;3.70;;;27.80;99.90;;;;;;5091511;28;20206;-84
2022/05/20 10:59:14;;;;;;;4.97;3.85;;;28.20;99.90;;;;;;5091178;28;20212;-79
2022/05/20 11:01:50;;;;;;;7.45;4.78;;;28.00;99.90;;;;;;5090699;28;20208;-80
2022/05/20 11:04:51;;;;;;;7.28;4.00;;;28.20;99.90;;;;;;5091364;28;20206;-75
2022/05/20 11:07:43;;;;;;;9.27;4.60;;;28.40;99.90;;;;;;5090442;28;20555;-82
2022/05/20 11:10:35;;;;;;;5.57;3.60;;;28.80;99.90;;;;;;5090726;28;20216;-81
2022/05/20 11:13:12;;;;;;;7.55;3.75;;;29.00;99.90;;;;;;5091258;28;20235;-80
2022/05/20 11:15:53;;;;;;;4.15;3.72;;;29.20;99.90;;;;;;5090568;28;20201;-86
2022/05/20 11:19:05;;;;;;;6.13;4.22;;;29.40;99.90;;;;;;5091273;28;20212;-85
2022/05/20 11:21:50;;;;;;;10.40;3.50;;;28.90;99.90;;;;;;5047806;28;20252;-80
2022/05/20 11:24:38;;;;;;;8.35;3.67;;;28.60;99.90;;;;;;5085658;28;20201;-78
2022/05/20 11:27:22;;;;;;;5.20;2.67;;;29.00;99.90;;;;;;5090686;28;20201;-80
2022/05/20 11:30:08;;;;;;;9.68;5.32;;;29.30;99.90;;;;;;5090668;28;20720;-80
2022/05/20 11:33:02;;;;;;;3.78;3.45;;;29.30;99.90;;;;;;5090442;28;20202;-80
2022/05/20 11:35:41;;;;;;;6.97;4.10;;;29.00;99.90;;;;;;5090220;28;20540;-80
2022/05/20 11:38:28;;;;;;;5.43;3.60;;;29.10;99.90;;;;;;5090617;28;20201;-79
2022/05/20 11:41:06;;;;;;;5.85;3.40;;;29.00;99.90;;;;;;5090690;28;20205;-77
2022/05/20 11:43:55;;;;;;;7.43;3.35;;;28.70;99.90;;;;;;5090349;28;20577;-82
2022/05/20 11:46:37;;;;;;;5.78;3.22;;;29.00;99.90;;;;;;5090922;28;20208;-80
2022/05/20 11:49:23;;;;;;;4.88;3.30;;;29.30;99.90;;;;;;5090208;28;20236;-80
2022/05/20 11:52:12;;;;;;;5.55;2.97;;;29.00;99.90;;;;;;5090807;28;20198;-79
2022/05/20 11:54:45;;;;;;;5.32;2.70;;;29.00;99.90;;;;;;5088553;28;20288;-79
2022/05/20 11:57:17;;;;;;;4.30;3.72;;;28.90;99.90;;;;;;5090487;28;20210;-73
2022/05/20 11:59:50;;;;;;;8.02;4.20;;;29.00;99.90;;;;;;5089961;28;20220;-78
2022/05/20 12:02:19;;;;;;;8.48;3.60;;;28.80;99.90;;;;;;5090489;28;20267;-74
2022/05/20 12:04:49;;;;;;;6.07;4.25;;;28.50;99.90;;;;;;5089795;28;20209;-77
2022/05/20 12:07:18;;;;;;;4.30;3.30;;;28.90;99.90;;;;;;5090267;28;20259;-75
2022/05/20 12:09:47;;;;;;;7.35;3.28;;;29.20;99.90;;;;;;5090090;28;20233;-79
2022/05/20 12:12:25;;;;;;;6.05;3.55;;;29.40;99.90;;;;;;5090373;28;20201;-77
2022/05/20 12:15:10;;;;;;;7.40;2.97;;;29.70;99.90;;;;;;5090613;28;20201;-77
2022/05/20 12:17:40;;;;;;;5.70;3.65;;;29.40;99.90;;;;;;5091856;28;20205;-76
2022/05/20 12:26:23;;;;;;;5.47;3.20;;;29.80;99.90;;;;;;5086601;28;20214;-74
2022/05/20 12:28:51;;;;;;;6.70;3.17;;;29.70;99.90;;;;;;5084065;28;20230;-73
2022/05/20 12:31:38;;;;;;;8.23;3.85;;;29.90;99.90;;;;;;5086511;28;20210;-76
2022/05/20 12:34:10;;;;;;;8.35;3.10;;;29.70;99.90;;;;;;5087701;28;20205;-73
2022/05/20 12:36:39;;;;;;;4.35;3.50;;;29.70;99.90;;;;;;5092506;28;20625;-77
2022/05/20 12:39:46;;;;;;;6.43;3.70;;;30.10;99.90;;;;;;5093298;28;20210;-74
2022/05/20 12:42:40;;;;;;;5.25;3.05;;;30.00;99.90;;;;;;5093156;28;20692;-76
2022/05/20 12:45:09;;;;;;;6.80;3.55;;;30.10;99.90;;;;;;5093399;28;20255;-74
2022/05/20 12:47:37;;;;;;;7.07;3.78;;;29.60;99.90;;;;;;5089373;28;20628;-76
2022/05/20 12:50:21;;;;;;;5.28;3.15;;;29.80;99.90;;;;;;5093248;28;20269;-74
2022/05/20 12:52:50;;;;;;;6.20;3.63;;;29.90;99.90;;;;;;5092870;28;20703;-76
2022/05/20 12:55:21;;;;;;;7.72;3.28;;;29.80;99.90;;;;;;5090349;28;20734;-76
2022/05/20 12:57:51;;;;;;;4.93;3.45;;;29.90;99.90;;;;;;5083735;28;20225;-76
2022/05/20 13:00:28;;;;;;;4.90;3.08;;;29.50;99.90;;;;;;5089894;28;20213;-71
2022/05/20 13:02:58;;;;;;;4.90;2.88;;;29.90;99.90;;;;;;5088000;28;20254;-71
2022/05/20 13:05:32;;;;;;;7.88;4.47;;;30.20;99.90;;;;;;5091927;28;20267;-73
2022/05/20 13:08:01;;;;;;;5.10;3.28;;;30.20;99.90;;;;;;5093014;28;20197;-77
2022/05/20 13:10:31;;;;;;;6.47;4.35;;;30.50;99.90;;;;;;5092473;28;20282;-70
2022/05/20 13:13:02;;;;;;;8.80;3.03;;;30.30;99.90;;;;;;5092578;28;20201;-76
2022/05/20 13:15:29;;;;;;;4.75;3.08;;;30.20;99.90;;;;;;5090886;28;20193;-76
2022/05/20 13:18:01;;;;;;;3.38;3.03;;;30.10;99.90;;;;;;5092713;28;20213;-79
2022/05/20 13:20:32;;;;;;;8.40;3.45;;;29.80;99.90;;;;;;5092044;28;20297;-75
2022/05/20 13:23:01;;;;;;;5.25;3.35;;;29.30;99.90;;;;;;5092413;28;20635;-78
2022/05/20 13:25:28;;;;;;;6.65;3.90;;;29.80;99.90;;;;;;5092176;28;20205;-76
2022/05/20 13:27:56;;;;;;;6.43;3.78;;;30.20;99.90;;;;;;5080114;28;20226;-76
2022/05/20 13:30:27;;;;;;;5.82;3.63;;;30.20;99.90;;;;;;5091860;28;20614;-75
2022/05/20 13:33:01;;;;;;;11.90;3.85;;;30.00;99.90;;;;;;5085092;28;20284;-75
2022/05/20 13:35:30;;;;;;;11.70;3.88;;;29.80;99.90;;;;;;5091360;28;20234;-75
2022/05/20 13:37:59;;;;;;;5.68;3.28;;;30.10;99.90;;;;;;5092023;28;20672;-73
2022/05/20 13:40:31;;;;;;;8.55;3.75;;;30.00;99.90;;;;;;5091493;28;20248;-77
2022/05/20 13:42:59;;;;;;;5.53;3.08;;;30.40;99.90;;;;;;5092075;28;20205;-78
2022/05/20 13:51:05;;;;;;;8.20;4.15;;;30.70;99.90;;;;;;5091598;28;20221;-76